Time;durP1;ratioP1;P1;durP2;ratioP2;P2;SDS_P1;SDS_P2;PMS_P1;PMS_P2;Temp;Humidity;BMP_temperature;BMP_pressure;BME280_temperature;BME280_humidity;BME280_pressure;Samples;Min_cycle;Max_cycle;Signal;HPM_P1;HPM_P2
2021/05/16 00:01:14;;;;;;;;;;;11.70;99.00;;;;;;5091089;28;20194;-84
2021/05/16 00:03:40;;;;;;;;;;;11.70;98.90;;;;;;5091539;28;20011;-84
2021/05/16 00:06:06;;;;;;;;;;;11.70;98.70;;;;;;5092701;28;19915;-84
2021/05/16 00:08:31;;;;;;;;;;;11.70;99.00;;;;;;5092615;28;19915;-84
2021/05/16 00:10:58;;;;;;;;;;;11.70;98.80;;;;;;5090738;28;19960;-84
2021/05/16 00:13:23;;;;;;;;;;;11.70;98.80;;;;;;5091131;28;19920;-84
2021/05/16 00:15:49;;;;;;;;;;;11.70;98.50;;;;;;5092499;28;20396;-85
2021/05/16 00:18:14;;;;;;;;;;;11.70;98.70;;;;;;5092509;28;19916;-84
2021/05/16 00:20:40;;;;;;;;;;;11.70;98.80;;;;;;5092066;28;19908;-84
2021/05/16 00:23:06;;;;;;;;;;;11.70;98.50;;;;;;5091017;28;19916;-84
2021/05/16 00:25:32;;;;;;;;;;;11.70;98.50;;;;;;5091120;28;19908;-84
2021/05/16 00:27:58;;;;;;;;;;;11.70;98.30;;;;;;5092403;28;20006;-83
2021/05/16 00:30:25;;;;;;;;;;;11.70;98.20;;;;;;5090545;28;19939;-84
2021/05/16 00:32:51;;;;;;;;;;;11.70;98.20;;;;;;5091924;28;19908;-85
2021/05/16 00:35:18;;;;;;;;;;;11.70;98.50;;;;;;5092554;28;20037;-84
2021/05/16 00:37:44;;;;;;;;;;;11.70;98.60;;;;;;5091557;28;20203;-85
2021/05/16 00:40:09;;;;;;;;;;;11.70;98.20;;;;;;5091216;28;19916;-85
2021/05/16 00:42:35;;;;;;;;;;;11.60;98.20;;;;;;5093137;28;19999;-84
2021/05/16 00:45:05;;;;;;;;;;;11.70;98.40;;;;;;5091083;28;19922;-85
2021/05/16 00:47:31;;;;;;;;;;;11.60;98.20;;;;;;5092351;28;19919;-84
2021/05/16 00:49:57;;;;;;;;;;;11.70;98.10;;;;;;5090532;28;20292;-84
2021/05/16 00:52:23;;;;;;;;;;;11.70;98.10;;;;;;5090910;28;19912;-85
2021/05/16 00:54:52;;;;;;;;;;;11.70;98.00;;;;;;5090985;28;19908;-84
2021/05/16 00:57:18;;;;;;;;;;;11.60;98.00;;;;;;5090797;28;19918;-85
2021/05/16 00:59:43;;;;;;;;;;;11.60;98.10;;;;;;5090252;28;19908;-85
2021/05/16 01:02:09;;;;;;;;;;;11.70;97.90;;;;;;5091127;28;19961;-85
2021/05/16 01:04:35;;;;;;;;;;;11.60;97.80;;;;;;5090999;28;19908;-84
2021/05/16 01:07:01;;;;;;;;;;;11.60;97.90;;;;;;5094715;28;19908;-84
2021/05/16 01:09:28;;;;;;;;;;;11.60;97.90;;;;;;5094059;28;19919;-84
2021/05/16 01:11:54;;;;;;;;;;;11.60;97.90;;;;;;5094644;28;19911;-85
2021/05/16 01:15:04;;;;;;;;;;;11.60;98.10;;;;;;5094611;28;20250;-84
2021/05/16 01:17:08;;;;;;;;;;;11.60;98.10;;;;;;5090099;28;19912;-84
2021/05/16 01:19:34;;;;;;;;;;;11.50;98.00;;;;;;5095100;28;19912;-84
2021/05/16 01:22:00;;;;;;;;;;;11.50;97.70;;;;;;5094472;28;19958;-85
2021/05/16 01:24:28;;;;;;;;;;;11.50;98.00;;;;;;5096427;28;19947;-84
2021/05/16 01:26:54;;;;;;;;;;;11.50;98.10;;;;;;5096093;28;20292;-83
2021/05/16 01:29:20;;;;;;;;;;;11.50;97.90;;;;;;5094064;28;19908;-84
2021/05/16 01:31:46;;;;;;;;;;;11.50;97.90;;;;;;5094267;28;20264;-84
2021/05/16 01:34:12;;;;;;;;;;;11.40;98.00;;;;;;5094405;28;19908;-83
2021/05/16 01:36:37;;;;;;;;;;;11.40;97.80;;;;;;5094375;28;19908;-85
2021/05/16 01:39:05;;;;;;;;;;;11.50;98.10;;;;;;5093601;28;20249;-85
2021/05/16 01:41:31;;;;;;;;;;;11.50;98.00;;;;;;5094642;28;20280;-85
2021/05/16 01:43:58;;;;;;;;;;;11.50;98.00;;;;;;5095481;28;19908;-84
2021/05/16 01:46:23;;;;;;;;;;;11.50;98.10;;;;;;5095582;28;19915;-85
2021/05/16 01:48:49;;;;;;;;;;;11.50;97.90;;;;;;5095137;28;19908;-84
2021/05/16 01:51:14;;;;;;;;;;;11.50;98.00;;;;;;5095234;28;19915;-84
2021/05/16 01:53:40;;;;;;;;;;;11.50;97.90;;;;;;5095374;28;20284;-84
2021/05/16 01:56:07;;;;;;;;;;;11.40;98.10;;;;;;5095289;28;20469;-85
2021/05/16 01:58:34;;;;;;;;;;;11.50;98.20;;;;;;5095222;28;19912;-86
2021/05/16 02:00:59;;;;;;;;;;;11.50;97.90;;;;;;5094806;28;19908;-85
2021/05/16 02:03:25;;;;;;;;;;;11.50;98.10;;;;;;5093924;28;20288;-84
2021/05/16 02:05:51;;;;;;;;;;;11.50;98.10;;;;;;5093746;28;19975;-84
2021/05/16 02:08:18;;;;;;;;;;;11.40;98.30;;;;;;5093530;28;19915;-85
2021/05/16 02:10:43;;;;;;;;;;;11.40;98.00;;;;;;5092927;28;19908;-86
2021/05/16 02:13:09;;;;;;;;;;;11.40;98.10;;;;;;5093597;28;19909;-84
2021/05/16 02:15:34;;;;;;;;;;;11.40;98.00;;;;;;5093660;28;19947;-84
2021/05/16 02:18:01;;;;;;;;;;;11.40;97.70;;;;;;5092064;28;19918;-85
2021/05/16 02:20:26;;;;;;;;;;;11.50;97.70;;;;;;5092757;28;20356;-84
2021/05/16 02:22:52;;;;;;;;;;;11.50;97.80;;;;;;5094575;28;19915;-85
2021/05/16 02:25:17;;;;;;;;;;;11.40;97.70;;;;;;5094366;28;19959;-85
2021/05/16 02:27:43;;;;;;;;;;;11.40;97.50;;;;;;5093286;28;20272;-85
2021/05/16 02:30:09;;;;;;;;;;;11.40;97.70;;;;;;5092679;28;19969;-85
2021/05/16 02:32:36;;;;;;;;;;;11.40;97.60;;;;;;5093108;28;20391;-84
2021/05/16 02:35:02;;;;;;;;;;;11.40;97.50;;;;;;5093464;28;20280;-85
2021/05/16 02:37:28;;;;;;;;;;;11.40;97.30;;;;;;5094717;28;20295;-85
2021/05/16 02:39:53;;;;;;;;;;;11.40;97.40;;;;;;5093647;28;20022;-84
2021/05/16 02:42:19;;;;;;;;;;;11.40;97.20;;;;;;5094486;28;19999;-83
2021/05/16 02:44:44;;;;;;;;;;;11.40;96.90;;;;;;5093152;28;20015;-84
2021/05/16 02:47:10;;;;;;;;;;;11.30;96.80;;;;;;5092421;28;19908;-84
2021/05/16 02:49:35;;;;;;;;;;;11.30;96.60;;;;;;5092401;28;19908;-85
2021/05/16 02:52:01;;;;;;;;;;;11.30;96.70;;;;;;5093056;28;19908;-84
2021/05/16 02:54:27;;;;;;;;;;;11.30;96.80;;;;;;5094282;28;20400;-84
2021/05/16 02:56:52;;;;;;;;;;;11.30;96.60;;;;;;5094420;28;20265;-84
2021/05/16 02:59:18;;;;;;;;;;;11.30;96.70;;;;;;5093655;28;19923;-84
2021/05/16 03:01:43;;;;;;;;;;;11.40;97.00;;;;;;5092777;28;19908;-84
2021/05/16 03:04:09;;;;;;;;;;;11.40;96.90;;;;;;5093193;28;19939;-84
2021/05/16 03:06:34;;;;;;;;;;;11.40;96.80;;;;;;5093806;28;19908;-84
2021/05/16 03:09:00;;;;;;;;;;;11.40;96.70;;;;;;5093433;28;19908;-84
2021/05/16 03:11:25;;;;;;;;;;;11.40;96.70;;;;;;5092763;28;19989;-84
2021/05/16 03:13:51;;;;;;;;;;;11.30;96.60;;;;;;5094091;28;19915;-84
2021/05/16 03:16:16;;;;;;;;;;;11.40;96.70;;;;;;5092843;28;19908;-85
2021/05/16 03:18:42;;;;;;;;;;;11.30;96.70;;;;;;5092272;28;19912;-84
2021/05/16 03:21:07;;;;;;;;;;;11.30;96.70;;;;;;5092231;28;20384;-84
2021/05/16 03:23:33;;;;;;;;;;;11.30;96.80;;;;;;5094101;28;19969;-86
2021/05/16 03:26:01;;;;;;;;;;;11.30;97.00;;;;;;5092704;28;19934;-84
2021/05/16 03:28:29;;;;;;;;;;;11.30;97.00;;;;;;5091969;28;19944;-84
2021/05/16 03:30:55;;;;;;;;;;;11.30;96.90;;;;;;5091537;28;19912;-85
2021/05/16 03:33:21;;;;;;;;;;;11.20;96.90;;;;;;5093434;28;19908;-84
2021/05/16 03:35:47;;;;;;;;;;;11.10;96.80;;;;;;5093495;28;19908;-84
2021/05/16 03:38:12;;;;;;;;;;;11.10;97.00;;;;;;5093142;28;19912;-85
2021/05/16 03:40:38;;;;;;;;;;;11.00;97.20;;;;;;5092720;28;19916;-85
2021/05/16 03:43:03;;;;;;;;;;;11.10;97.20;;;;;;5092344;28;19908;-84
2021/05/16 03:45:29;;;;;;;;;;;11.00;97.20;;;;;;5092110;28;19915;-85
2021/05/16 03:47:54;;;;;;;;;;;11.00;97.00;;;;;;5093420;28;19930;-84
2021/05/16 03:50:20;;;;;;;;;;;11.00;97.20;;;;;;5091651;28;19951;-85
2021/05/16 03:52:45;;;;;;;;;;;11.00;97.50;;;;;;5091870;28;20364;-84
2021/05/16 03:55:11;;;;;;;;;;;10.90;97.20;;;;;;5091992;28;20357;-84
2021/05/16 03:57:37;;;;;;;;;;;11.00;97.50;;;;;;5092100;28;19909;-85
2021/05/16 04:00:03;;;;;;;;;;;11.00;97.50;;;;;;5091351;28;19934;-85
2021/05/16 04:02:29;;;;;;;;;;;10.90;97.50;;;;;;5092070;28;19931;-84
2021/05/16 04:04:54;;;;;;;;;;;10.90;97.60;;;;;;5091483;28;20368;-84
2021/05/16 04:07:20;;;;;;;;;;;11.00;97.60;;;;;;5092921;28;19912;-84
2021/05/16 04:09:45;;;;;;;;;;;10.90;97.40;;;;;;5092379;28;20391;-84
2021/05/16 04:12:11;;;;;;;;;;;11.00;97.50;;;;;;5092753;28;19999;-84
2021/05/16 04:14:36;;;;;;;;;;;11.00;97.80;;;;;;5091764;28;19952;-85
2021/05/16 04:17:02;;;;;;;;;;;10.90;97.40;;;;;;5091267;28;19915;-85
2021/05/16 04:19:27;;;;;;;;;;;11.00;97.70;;;;;;5092109;28;19916;-84
2021/05/16 04:21:53;;;;;;;;;;;11.00;97.70;;;;;;5091249;28;19912;-85
2021/05/16 04:24:19;;;;;;;;;;;11.00;97.50;;;;;;5092874;28;19908;-85
2021/05/16 04:26:44;;;;;;;;;;;10.90;97.60;;;;;;5091509;28;20280;-84
2021/05/16 04:29:10;;;;;;;;;;;10.90;97.70;;;;;;5092171;28;19956;-84
2021/05/16 04:31:36;;;;;;;;;;;10.90;97.90;;;;;;5091412;28;19908;-85
2021/05/16 04:34:01;;;;;;;;;;;10.90;98.10;;;;;;5091314;28;20345;-85
2021/05/16 04:36:27;;;;;;;;;;;10.90;97.90;;;;;;5091462;28;19918;-84
2021/05/16 04:38:52;;;;;;;;;;;11.00;97.90;;;;;;5092105;28;19966;-84
2021/05/16 04:41:18;;;;;;;;;;;11.00;97.80;;;;;;5094098;28;19913;-84
2021/05/16 04:43:44;;;;;;;;;;;11.00;97.90;;;;;;5095314;28;20265;-84
2021/05/16 04:46:09;;;;;;;;;;;11.00;97.90;;;;;;5096469;28;19908;-84
2021/05/16 04:48:35;;;;;;;;;;;11.00;98.10;;;;;;5095039;28;19915;-84
2021/05/16 04:51:01;;;;;;;;;;;11.00;98.20;;;;;;5094455;28;20010;-84
2021/05/16 04:53:29;;;;;;;;;;;11.00;98.00;;;;;;5095095;28;19939;-85
2021/05/16 04:55:55;;;;;;;;;;;11.10;98.10;;;;;;5094994;28;19951;-84
2021/05/16 04:58:21;;;;;;;;;;;11.10;98.10;;;;;;5095046;28;19959;-84
2021/05/16 05:00:50;;;;;;;;;;;11.10;98.10;;;;;;5094260;28;19908;-84
2021/05/16 05:03:16;;;;;;;;;;;11.10;98.10;;;;;;5094750;28;19915;-85
2021/05/16 05:05:41;;;;;;;;;;;11.10;98.10;;;;;;5096036;28;19960;-84
2021/05/16 05:08:07;;;;;;;;;;;11.10;97.90;;;;;;5096457;28;20003;-84
2021/05/16 05:10:32;;;;;;;;;;;11.10;98.10;;;;;;5095773;28;20334;-84
2021/05/16 05:12:58;;;;;;;;;;;11.20;98.20;;;;;;5095857;28;19912;-84
2021/05/16 05:15:23;;;;;;;;;;;11.20;98.30;;;;;;5094410;28;19908;-84
2021/05/16 05:17:49;;;;;;;;;;;11.20;98.00;;;;;;5094570;28;19912;-84
2021/05/16 05:20:14;;;;;;;;;;;11.20;98.10;;;;;;5094226;28;20356;-84
2021/05/16 05:22:40;;;;;;;;;;;11.20;98.00;;;;;;5094590;28;19915;-85
2021/05/16 05:25:06;;;;;;;;;;;11.20;98.00;;;;;;5094548;28;19908;-84
2021/05/16 05:27:31;;;;;;;;;;;11.30;97.90;;;;;;5094309;28;19944;-85
2021/05/16 05:29:57;;;;;;;;;;;11.30;98.00;;;;;;5094995;28;20006;-84
2021/05/16 05:32:22;;;;;;;;;;;11.30;97.90;;;;;;5095551;28;19908;-84
2021/05/16 05:34:48;;;;;;;;;;;11.30;97.90;;;;;;5094244;28;19965;-84
2021/05/16 05:37:13;;;;;;;;;;;11.40;97.90;;;;;;5094196;28;19908;-86
2021/05/16 05:39:39;;;;;;;;;;;11.40;97.90;;;;;;5135319;22;19934;-85
2021/05/16 05:42:04;;;;;;;;;;;11.40;98.00;;;;;;5119076;27;19947;-85
2021/05/16 05:44:31;;;;;;;;;;;11.40;97.80;;;;;;5118411;27;19907;-85
2021/05/16 05:46:56;;;;;;;;;;;11.40;97.60;;;;;;5118255;27;19998;-85
2021/05/16 05:49:23;;;;;;;;;;;11.40;97.80;;;;;;5136133;27;19973;-85
2021/05/16 05:51:48;;;;;;;;;;;11.40;97.60;;;;;;5136129;27;19915;-85
2021/05/16 05:54:14;;;;;;;;;;;11.40;97.50;;;;;;5118299;27;19915;-88
2021/05/16 05:56:46;;;;;;;;;;;11.40;97.70;;;;;;5137374;27;19907;-85
2021/05/16 05:59:13;;;;;;;;;;;11.40;97.70;;;;;;5117430;27;19964;-85
2021/05/16 06:01:39;;;;;;;;;;;11.40;97.60;;;;;;5117589;27;20298;-85
2021/05/16 06:04:04;;;;;;;;;;;11.40;97.30;;;;;;5135997;27;19915;-86
2021/05/16 06:06:30;;;;;;;;;;;11.40;97.30;;;;;;5117509;27;19915;-85
2021/05/16 06:08:55;;;;;;;;;;;11.40;97.30;;;;;;5135411;27;19984;-87
2021/05/16 06:11:21;;;;;;;;;;;11.40;97.30;;;;;;5117586;27;19949;-87
2021/05/16 06:13:47;;;;;;;;;;;11.50;97.30;;;;;;5117498;27;19994;-87
2021/05/16 06:16:13;;;;;;;;;;;11.50;97.40;;;;;;5117408;27;20367;-86
2021/05/16 06:18:38;;;;;;;;;;;11.40;97.40;;;;;;5117407;27;19916;-87
2021/05/16 06:21:04;;;;;;;;;;;11.40;97.30;;;;;;5135491;27;20006;-86
2021/05/16 06:23:45;;;;;;;;;;;11.40;97.60;;;;;;5117181;27;20271;-85
2021/05/16 06:26:10;;;;;;;;;;;11.50;97.50;;;;;;5117194;27;19930;-86
2021/05/16 06:28:36;;;;;;;;;;;11.60;97.60;;;;;;5117701;27;20371;-85
2021/05/16 06:31:01;;;;;;;;;;;11.60;97.40;;;;;;5116966;27;20356;-86
2021/05/16 06:33:27;;;;;;;;;;;11.60;96.90;;;;;;5117266;27;19907;-86
2021/05/16 06:35:52;;;;;;;;;;;11.50;97.20;;;;;;5117176;27;19919;-85
2021/05/16 06:38:18;;;;;;;;;;;11.60;97.40;;;;;;5116914;27;19938;-86
2021/05/16 06:40:43;;;;;;;;;;;11.60;97.20;;;;;;5116352;27;19915;-86
2021/05/16 06:43:11;;;;;;;;;;;11.60;96.80;;;;;;5135565;27;19912;-85
2021/05/16 06:45:36;;;;;;;;;;;11.60;96.80;;;;;;5117014;27;19907;-85
2021/05/16 06:48:02;;;;;;;;;;;11.60;96.80;;;;;;5116897;27;19914;-86
2021/05/16 06:50:27;;;;;;;;;;;11.60;96.80;;;;;;5135216;27;20372;-86
2021/05/16 06:52:53;;;;;;;;;;;11.60;96.90;;;;;;5116796;27;19911;-86
2021/05/16 06:55:18;;;;;;;;;;;11.60;96.60;;;;;;5116466;27;20003;-85
2021/05/16 06:57:44;;;;;;;;;;;11.60;96.40;;;;;;5116611;27;19912;-85
2021/05/16 07:00:10;;;;;;;;;;;11.60;96.40;;;;;;5134063;27;19908;-86
2021/05/16 07:02:35;;;;;;;;;;;11.60;96.60;;;;;;5134119;27;20036;-86
2021/05/16 07:05:01;;;;;;;;;;;11.60;96.40;;;;;;5134903;27;19907;-85
2021/05/16 07:07:26;;;;;;;;;;;11.60;96.20;;;;;;5116460;27;19919;-86
2021/05/16 07:09:52;;;;;;;;;;;11.60;96.10;;;;;;5116135;27;20369;-86
2021/05/16 07:12:17;;;;;;;;;;;11.70;96.40;;;;;;5116321;27;19908;-86
2021/05/16 07:14:43;;;;;;;;;;;11.70;96.50;;;;;;5117739;27;19907;-86
2021/05/16 07:17:08;;;;;;;;;;;11.70;96.20;;;;;;5136761;27;19918;-86
2021/05/16 07:19:34;;;;;;;;;;;11.80;96.30;;;;;;5117408;27;19986;-86
2021/05/16 07:21:59;;;;;;;;;;;11.70;96.30;;;;;;5118503;27;20260;-86
2021/05/16 07:24:25;;;;;;;;;;;11.80;96.20;;;;;;5116135;27;19958;-86
2021/05/16 07:26:51;;;;;;;;;;;11.80;96.30;;;;;;5116126;27;20264;-86
2021/05/16 07:29:16;;;;;;;;;;;11.70;95.90;;;;;;5115308;27;19911;-86
2021/05/16 07:31:42;;;;;;;;;;;11.80;96.20;;;;;;5116428;27;19998;-86
2021/05/16 07:34:07;;;;;;;;;;;11.80;96.10;;;;;;5116062;27;19961;-86
2021/05/16 07:42:56;;;;;;;;;;;11.90;95.60;;;;;;5014276;27;19974;-86
2021/05/16 07:45:22;;;;;;;;;;;12.00;95.90;;;;;;5115472;27;20006;-86
2021/05/16 07:47:48;;;;;;;;;;;12.00;96.10;;;;;;5115488;28;19914;-86
2021/05/16 07:50:14;;;;;;;;;;;12.00;95.50;;;;;;5115567;27;19908;-86
2021/05/16 07:52:40;;;;;;;;;;;12.10;95.40;;;;;;5115316;27;19911;-86
2021/05/16 07:55:06;;;;;;;;;;;12.10;94.80;;;;;;5115423;27;20260;-86
2021/05/16 07:57:31;;;;;;;;;;;12.10;94.90;;;;;;5115238;27;20323;-86
2021/05/16 07:59:57;;;;;;;;;;;12.10;95.10;;;;;;5114824;28;19907;-86
2021/05/16 08:02:23;;;;;;;;;;;12.10;94.80;;;;;;5115148;27;19914;-86
2021/05/16 08:04:48;;;;;;;;;;;12.10;95.00;;;;;;5115154;27;20002;-86
2021/05/16 08:07:14;;;;;;;;;;;12.10;95.60;;;;;;5116340;27;20040;-86
2021/05/16 08:09:39;;;;;;;;;;;12.10;95.60;;;;;;5114564;27;19911;-86
2021/05/16 08:12:05;;;;;;;;;;;12.20;95.70;;;;;;5133629;27;20343;-86
2021/05/16 08:14:30;;;;;;;;;;;12.10;95.60;;;;;;5114953;28;20384;-86
2021/05/16 08:16:56;;;;;;;;;;;12.10;95.80;;;;;;5114955;27;19907;-86
2021/05/16 08:19:22;;;;;;;;;;;12.20;95.70;;;;;;5117642;28;19911;-86
2021/05/16 08:21:48;;;;;;;;;;;12.20;95.90;;;;;;5118383;28;19907;-86
2021/05/16 08:24:14;;;;;;;;;;;12.20;95.70;;;;;;5136967;28;20275;-86
2021/05/16 08:26:40;;;;;;;;;;;12.30;95.80;;;;;;5116500;28;20340;-86
2021/05/16 08:29:06;;;;;;;;;;;12.40;95.60;;;;;;5114508;28;19936;-86
2021/05/16 08:31:35;;;;;;;;;;;12.40;95.40;;;;;;5133252;28;19959;-86
2021/05/16 08:34:02;;;;;;;;;;;12.50;95.70;;;;;;5133626;28;19908;-86
2021/05/16 08:36:30;;;;;;;;;;;12.50;95.40;;;;;;5115363;28;20278;-86
2021/05/16 08:38:55;;;;;;;;;;;12.40;95.50;;;;;;5114324;28;20291;-86
2021/05/16 08:41:21;;;;;;;;;;;12.40;96.70;;;;;;5133388;28;19912;-86
2021/05/16 08:43:46;;;;;;;;;;;12.30;97.60;;;;;;5114953;28;19918;-86
2021/05/16 08:46:12;;;;;;;;;;;12.30;98.20;;;;;;5133392;28;19914;-86
2021/05/16 08:48:39;;;;;;;;;;;12.30;98.50;;;;;;5115249;28;20325;-86
2021/05/16 08:51:05;;;;;;;;;;;12.30;99.00;;;;;;5114533;28;19911;-86
2021/05/16 08:53:30;;;;;;;;;;;12.30;99.20;;;;;;5114861;28;19907;-86
2021/05/16 08:55:56;;;;;;;;;;;12.30;99.50;;;;;;5114967;28;19908;-87
2021/05/16 08:58:21;;;;;;;;;;;12.40;99.70;;;;;;5133341;28;20281;-87
2021/05/16 09:00:48;;;;;;;;;;;12.40;99.60;;;;;;5114288;28;19973;-86
2021/05/16 09:03:15;;;;;;;;;;;12.50;99.20;;;;;;5114905;28;19924;-87
2021/05/16 09:05:45;;;;;;;;;;;12.60;99.00;;;;;;5114838;28;20052;-87
2021/05/16 09:08:12;;;;;;;;;;;12.60;97.90;;;;;;5114919;28;19908;-87
2021/05/16 09:10:45;;;;;;;;;;;12.70;97.50;;;;;;5114587;28;19908;-87
2021/05/16 09:13:11;;;;;;;;;;;12.60;94.50;;;;;;5114727;28;19908;-86
2021/05/16 09:15:37;;;;;;;;;;;12.70;95.50;;;;;;5115028;28;19933;-86
2021/05/16 09:18:02;;;;;;;;;;;12.60;95.10;;;;;;5114719;28;19969;-86
2021/05/16 09:20:28;;;;;;;;;;;12.60;94.70;;;;;;5114470;28;19990;-86
2021/05/16 09:22:53;;;;;;;;;;;12.70;95.00;;;;;;5114356;28;19914;-86
2021/05/16 09:25:20;;;;;;;;;;;12.70;95.10;;;;;;5132786;27;20283;-86
2021/05/16 09:27:48;;;;;;;;;;;12.60;94.70;;;;;;5136218;27;19908;-86
2021/05/16 09:30:17;;;;;;;;;;;12.60;95.30;;;;;;5117647;27;20002;-86
2021/05/16 09:32:46;;;;;;;;;;;12.60;94.40;;;;;;5118175;27;19930;-85
2021/05/16 09:35:12;;;;;;;;;;;12.70;93.70;;;;;;5136430;27;20275;-86
2021/05/16 09:37:53;;;;;;;;;;;12.80;92.80;;;;;;5118030;27;19907;-86
2021/05/16 09:40:25;;;;;;;;;;;12.70;92.50;;;;;;5117701;27;20274;-86
2021/05/16 09:43:10;;;;;;;;;;;12.80;92.50;;;;;;5117913;27;19952;-86
2021/05/16 09:45:42;;;;;;;;;;;12.80;92.90;;;;;;5118015;27;19923;-86
2021/05/16 09:48:30;;;;;;;;;;;12.80;92.80;;;;;;5118237;27;19915;-86
2021/05/16 09:51:15;;;;;;;;;;;12.80;92.70;;;;;;5117440;27;19911;-86
2021/05/16 09:53:49;;;;;;;;;;;12.80;93.00;;;;;;5117630;27;19915;-86
2021/05/16 09:56:16;;;;;;;;;;;12.80;93.10;;;;;;5118002;27;19915;-86
2021/05/16 09:58:42;;;;;;;;;;;12.80;92.80;;;;;;5136430;27;19918;-86
2021/05/16 10:01:08;;;;;;;;;;;12.90;93.10;;;;;;5117819;27;20001;-86
2021/05/16 10:03:34;;;;;;;;;;;12.90;93.60;;;;;;5119549;27;19930;-86
2021/05/16 10:06:00;;;;;;;;;;;13.00;93.50;;;;;;5137960;27;20379;-86
2021/05/16 10:08:26;;;;;;;;;;;13.10;93.60;;;;;;5118139;27;19907;-87
2021/05/16 10:10:52;;;;;;;;;;;13.10;93.60;;;;;;5135296;27;19960;-86
2021/05/16 10:13:17;;;;;;;;;;;13.20;93.10;;;;;;5117383;27;19943;-87
2021/05/16 10:15:44;;;;;;;;;;;13.30;93.30;;;;;;5117218;27;20299;-86
2021/05/16 10:18:10;;;;;;;;;;;13.40;93.20;;;;;;5117314;27;19917;-86
2021/05/16 10:20:37;;;;;;;;;;;13.50;93.20;;;;;;5116785;27;19908;-87
2021/05/16 10:23:04;;;;;;;;;;;13.50;92.90;;;;;;5135745;27;19914;-86
2021/05/16 10:25:47;;;;;;;;;;;13.60;91.10;;;;;;5116992;27;20427;-86
2021/05/16 10:28:16;;;;;;;;;;;13.50;90.80;;;;;;5117161;27;19908;-87
2021/05/16 10:31:01;;;;;;;;;;;13.50;91.20;;;;;;5135463;27;19915;-87
2021/05/16 10:33:33;;;;;;;;;;;13.40;92.90;;;;;;5117888;27;19914;-86
2021/05/16 10:35:59;;;;;;;;;;;12.90;96.70;;;;;;5118085;27;19980;-86
2021/05/16 10:38:34;;;;;;;;;;;12.60;97.40;;;;;;5116356;27;20324;-86
2021/05/16 10:41:16;;;;;;;;;;;12.50;98.10;;;;;;5117050;27;19915;-86
2021/05/16 10:43:42;;;;;;;;;;;12.50;99.40;;;;;;5117431;27;19965;-86
2021/05/16 10:46:26;;;;;;;;;;;12.50;98.80;;;;;;5116869;27;19908;-86
2021/05/16 10:49:11;;;;;;;;;;;12.50;97.70;;;;;;5116398;27;19908;-86
2021/05/16 10:51:37;;;;;;;;;;;12.50;98.80;;;;;;5116470;27;20267;-86
2021/05/16 10:54:22;;;;;;;;;;;12.60;99.20;;;;;;5135147;27;19908;-86
2021/05/16 10:57:07;;;;;;;;;;;12.70;99.60;;;;;;5116486;27;19998;-86
2021/05/16 10:59:36;;;;;;;;;;;12.80;99.00;;;;;;5115745;27;19915;-87
2021/05/16 11:02:02;;;;;;;;;;;13.00;99.20;;;;;;5134750;27;19907;-86
2021/05/16 11:04:47;;;;;;;;;;;13.10;97.30;;;;;;5116530;27;19908;-86
2021/05/16 11:07:32;;;;;;;;;;;13.20;96.70;;;;;;5116494;27;19915;-86
2021/05/16 11:10:16;;;;;;;;;;;13.30;97.50;;;;;;5115619;27;19907;-87
2021/05/16 11:12:42;;;;;;;;;;;13.30;96.30;;;;;;5116476;27;19998;-86
2021/05/16 11:15:07;;;;;;;;;;;13.40;96.30;;;;;;5116632;27;20346;-86
2021/05/16 11:17:33;;;;;;;;;;;13.50;94.00;;;;;;5116075;27;19930;-87
2021/05/16 11:19:58;;;;;;;;;;;13.60;93.20;;;;;;5115547;27;20002;-86
2021/05/16 11:22:24;;;;;;;;;;;13.70;92.80;;;;;;5116057;27;19907;-86
2021/05/16 11:24:50;;;;;;;;;;;13.70;91.90;;;;;;5116034;27;19907;-86
2021/05/16 11:27:24;;;;;;;;;;;13.70;91.70;;;;;;5116372;27;20295;-86
2021/05/16 11:29:54;;;;;;;;;;;13.80;91.70;;;;;;5115357;27;20036;-86
2021/05/16 11:32:27;;;;;;;;;;;13.70;91.10;;;;;;5115554;27;19908;-86
2021/05/16 11:35:00;;;;;;;;;;;13.60;91.30;;;;;;5134274;27;19919;-86
2021/05/16 11:37:25;;;;;;;;;;;13.50;91.70;;;;;;5134476;27;19914;-86
2021/05/16 11:39:51;;;;;;;;;;;13.40;91.90;;;;;;5110394;22;20304;-86
2021/05/16 11:42:34;;;;;;;;;;;13.40;91.90;;;;;;5095121;28;19916;-86
2021/05/16 11:45:00;;;;;;;;;;;13.30;91.10;;;;;;5095287;28;20287;-86
2021/05/16 11:47:35;;;;;;;;;;;13.30;91.70;;;;;;5077401;28;19912;-86
2021/05/16 11:50:01;;;;;;;;;;;13.30;91.10;;;;;;5094369;28;19915;-87
2021/05/16 11:52:26;;;;;;;;;;;13.30;91.40;;;;;;5095513;28;19912;-86
2021/05/16 11:54:52;;;;;;;;;;;13.30;92.30;;;;;;5077207;28;20430;-84
2021/05/16 11:57:20;;;;;;;;;;;13.40;91.70;;;;;;5076835;28;20279;-86
2021/05/16 11:59:46;;;;;;;;;;;13.40;90.90;;;;;;5095114;28;20326;-86
2021/05/16 12:02:12;;;;;;;;;;;13.40;90.50;;;;;;5076564;28;19908;-86
2021/05/16 12:04:40;;;;;;;;;;;13.40;90.70;;;;;;5076591;28;20348;-86
2021/05/16 12:07:06;;;;;;;;;;;13.50;91.20;;;;;;5076297;28;19916;-87
2021/05/16 12:09:44;;;;;;;;;;;13.50;91.10;;;;;;5076513;28;19908;-87
2021/05/16 12:12:17;;;;;;;;;;;13.60;91.10;;;;;;5077018;28;19909;-87
2021/05/16 12:14:43;;;;;;;;;;;13.70;90.90;;;;;;5077222;28;19908;-87
2021/05/16 12:17:09;;;;;;;;;;;13.60;90.20;;;;;;5095812;28;20284;-86
2021/05/16 12:19:37;;;;;;;;;;;13.60;90.80;;;;;;5076742;28;19912;-87
2021/05/16 12:22:07;;;;;;;;;;;13.70;90.70;;;;;;5077904;28;19908;-87
2021/05/16 12:24:36;;;;;;;;;;;13.70;90.30;;;;;;5076938;28;20006;-86
2021/05/16 12:27:06;;;;;;;;;;;13.70;90.70;;;;;;5094955;28;20374;-86
2021/05/16 12:29:33;;;;;;;;;;;13.70;90.70;;;;;;5094716;28;19908;-86
2021/05/16 12:31:58;;;;;;;;;;;13.80;91.00;;;;;;5076783;28;19935;-87
2021/05/16 12:34:25;;;;;;;;;;;13.80;91.00;;;;;;5095383;28;19916;-86
2021/05/16 12:36:54;;;;;;;;;;;13.80;90.50;;;;;;5095522;28;20252;-86
2021/05/16 12:39:36;;;;;;;;;;;13.90;91.00;;;;;;5094949;28;19931;-87
2021/05/16 12:42:02;;;;;;;;;;;14.10;90.50;;;;;;5077790;28;19908;-87
2021/05/16 12:44:27;;;;;;;;;;;14.20;85.50;;;;;;5077522;28;19908;-86
2021/05/16 12:46:54;;;;;;;;;;;14.30;85.60;;;;;;5076928;28;19912;-86
2021/05/16 12:49:23;;;;;;;;;;;14.50;84.80;;;;;;5076310;28;19908;-87
2021/05/16 12:51:53;;;;;;;;;;;14.60;84.40;;;;;;5076762;28;19912;-87
2021/05/16 12:54:20;;;;;;;;;;;14.70;83.20;;;;;;5094765;28;19931;-87
2021/05/16 12:56:49;;;;;;;;;;;14.70;81.20;;;;;;5076541;28;19951;-86
2021/05/16 12:59:37;;;;;;;;;;;14.70;82.20;;;;;;5093841;28;19912;-86
2021/05/16 13:02:07;;;;;;;;;;;14.70;84.60;;;;;;5066261;28;20271;-87
2021/05/16 13:04:43;;;;;;;;;;;14.80;81.30;;;;;;5099914;28;19912;-86
2021/05/16 13:07:10;;;;;;;;;;;14.80;81.70;;;;;;5082592;28;19930;-87
2021/05/16 13:09:36;;;;;;;;;;;14.80;80.40;;;;;;5080443;28;19915;-86
2021/05/16 13:12:01;;;;;;;;;;;14.80;79.70;;;;;;5100031;28;19908;-86
2021/05/16 13:14:31;;;;;;;;;;;14.80;81.50;;;;;;5100677;28;19908;-87
2021/05/16 13:17:07;;;;;;;;;;;14.90;81.70;;;;;;5082382;28;19912;-87
2021/05/16 13:19:37;;;;;;;;;;;15.00;80.40;;;;;;5082028;28;19972;-87
2021/05/16 13:22:03;;;;;;;;;;;15.10;80.20;;;;;;5082315;28;20376;-86
2021/05/16 13:24:47;;;;;;;;;;;15.10;79.80;;;;;;5082068;28;19923;-87
2021/05/16 13:27:13;;;;;;;;;;;15.10;79.70;;;;;;5081832;28;19908;-86
2021/05/16 13:29:43;;;;;;;;;;;15.20;79.60;;;;;;5080906;28;19951;-86
2021/05/16 13:32:13;;;;;;;;;;;15.20;78.80;;;;;;5081825;28;19912;-87
2021/05/16 13:34:40;;;;;;;;;;;15.20;77.90;;;;;;5100178;28;19915;-87
2021/05/16 13:37:05;;;;;;;;;;;15.20;76.00;;;;;;5082771;28;19909;-86
2021/05/16 13:39:31;;;;;;;;;;;15.20;78.20;;;;;;5099258;28;19916;-87
2021/05/16 13:42:00;;;;;;;;;;;15.20;79.40;;;;;;5079305;28;19908;-87
2021/05/16 13:44:26;;;;;;;;;;;15.20;78.00;;;;;;5079900;28;19916;-86
2021/05/16 13:46:52;;;;;;;;;;;15.20;77.80;;;;;;5098397;28;19908;-86
2021/05/16 13:49:17;;;;;;;;;;;15.10;78.40;;;;;;5098748;28;19908;-85
2021/05/16 13:51:43;;;;;;;;;;;15.10;80.00;;;;;;5080044;28;19908;-85
2021/05/16 13:54:09;;;;;;;;;;;15.10;80.10;;;;;;5097974;28;19955;-85
2021/05/16 13:56:35;;;;;;;;;;;15.10;80.40;;;;;;5079743;28;19908;-86
2021/05/16 13:59:01;;;;;;;;;;;15.00;81.40;;;;;;5098167;28;19916;-85
2021/05/16 14:01:26;;;;;;;;;;;15.00;81.90;;;;;;5098551;28;19927;-86
2021/05/16 14:03:52;;;;;;;;;;;15.00;81.80;;;;;;5098521;28;19915;-86
2021/05/16 14:06:17;;;;;;;;;;;15.00;81.80;;;;;;5080565;28;19908;-86
2021/05/16 14:08:43;;;;;;;;;;;15.00;82.20;;;;;;5079779;28;19934;-86
2021/05/16 14:11:09;;;;;;;;;;;15.00;81.80;;;;;;5080350;28;20372;-85
2021/05/16 14:13:35;;;;;;;;;;;14.90;81.70;;;;;;5080005;28;20006;-86
2021/05/16 14:16:01;;;;;;;;;;;15.10;83.60;;;;;;5080344;28;20299;-85
2021/05/16 14:18:26;;;;;;;;;;;15.20;80.80;;;;;;5079769;28;19967;-86
2021/05/16 14:20:51;;;;;;;;;;;15.40;79.90;;;;;;5079044;28;19909;-86
2021/05/16 14:23:17;;;;;;;;;;;15.40;79.30;;;;;;5079687;28;19965;-85